Time;durP1;ratioP1;P1;durP2;ratioP2;P2;SDS_P1;SDS_P2;PMS_P1;PMS_P2;Temp;Humidity;BMP_temperature;BMP_pressure;BME280_temperature;BME280_humidity;BME280_pressure;Samples;Min_cycle;Max_cycle;Signal;HPM_P1;HPM_P2
2021/04/05 00:00:00;;;;;;;13.03;7.85;;;;;;;20.47;90.68;100389.35;353168;82;21114;-43
2021/04/05 00:00:32;;;;;;;15.80;8.90;;;;;;;20.47;90.66;100388.52;361904;81;21098;-43
2021/04/05 00:01:07;;;;;;;17.17;9.28;;;;;;;20.47;90.61;100391.27;358224;81;21140;-43
2021/04/05 00:01:39;;;;;;;16.73;9.35;;;;;;;20.46;90.46;100386.28;362707;81;21125;-43
2021/04/05 00:02:11;;;;;;;17.60;9.53;;;;;;;20.46;90.48;100387.66;362500;80;21140;-43
2021/04/05 00:02:45;;;;;;;18.60;9.85;;;;;;;20.47;90.42;100394.02;362172;81;21102;-43
2021/04/05 00:03:17;;;;;;;15.55;8.70;;;;;;;20.46;90.40;100386.83;361374;81;21049;-43
2021/04/05 00:03:49;;;;;;;15.28;8.35;;;;;;;20.46;90.37;100392.31;362635;81;21142;-43
2021/04/05 00:04:21;;;;;;;15.93;8.90;;;;;;;20.46;90.33;100389.57;361515;81;21109;-43
2021/04/05 00:04:54;;;;;;;16.97;9.58;;;;;;;20.45;90.22;100382.39;360844;80;21091;-43
2021/04/05 00:05:30;;;;;;;17.98;9.60;;;;;;;20.45;90.11;100383.76;354003;83;21157;-43
2021/04/05 00:06:03;;;;;;;15.32;8.55;;;;;;;20.45;90.04;100389.25;360978;80;21149;-43
2021/04/05 00:06:35;;;;;;;17.92;9.00;;;;;;;20.45;89.91;100385.13;356191;81;21097;-43
2021/04/05 00:07:08;;;;;;;17.23;9.08;;;;;;;20.45;89.82;100386.00;360684;81;21097;-43
2021/04/05 00:07:42;;;;;;;14.65;8.78;;;;;;;20.45;89.79;100378.27;359925;81;21125;-43
2021/04/05 00:08:15;;;;;;;15.45;9.35;;;;;;;20.44;89.71;100382.93;362135;81;21546;-44
2021/04/05 00:08:47;;;;;;;16.15;9.13;;;;;;;20.44;89.68;100377.98;364711;80;21130;-43
2021/04/05 00:09:19;;;;;;;13.83;8.88;;;;;;;20.44;89.57;100383.47;359042;80;21168;-43
2021/04/05 00:09:52;;;;;;;17.75;8.80;;;;;;;20.44;89.55;100382.10;360201;81;21143;-43
2021/04/05 00:10:31;;;;;;;15.58;9.55;;;;;;;20.44;89.54;100380.73;362729;81;21154;-43
2021/04/05 00:11:03;;;;;;;15.25;9.03;;;;;;;20.43;89.54;100379.03;360289;81;21188;-43
2021/04/05 00:11:36;;;;;;;16.10;9.23;;;;;;;20.42;89.60;100380.95;361094;81;21090;-43
2021/04/05 00:12:10;;;;;;;16.05;9.08;;;;;;;20.42;89.54;100378.20;347406;83;21137;-43
2021/04/05 00:12:42;;;;;;;15.78;9.20;;;;;;;20.43;89.48;100379.03;351622;84;21548;-43
2021/04/05 00:13:20;;;;;;;15.43;9.00;;;;;;;20.42;89.41;100378.75;363745;80;21347;-43
2021/04/05 00:13:52;;;;;;;16.77;9.18;;;;;;;20.41;89.43;100377.88;361002;81;21093;-44
2021/04/05 00:14:26;;;;;;;16.02;9.20;;;;;;;20.42;89.30;100382.87;346735;85;21315;-44
2021/04/05 00:14:58;;;;;;;15.93;9.15;;;;;;;20.40;89.27;100376.22;360851;81;21153;-43
2021/04/05 00:15:30;;;;;;;15.13;8.63;;;;;;;20.40;89.21;100372.10;351036;83;21177;-43
2021/04/05 00:16:04;;;;;;;15.35;8.43;;;;;;;20.39;89.19;100377.28;362086;81;21127;-42
2021/04/05 00:16:36;;;;;;;14.65;8.68;;;;;;;20.39;89.13;100373.70;362501;81;21094;-43
2021/04/05 00:17:09;;;;;;;16.05;8.85;;;;;;;20.39;89.09;100371.78;361001;81;21159;-43
2021/04/05 00:17:41;;;;;;;17.75;9.58;;;;;;;20.40;89.03;100376.77;363540;81;21130;-43
2021/04/05 00:18:16;;;;;;;17.20;9.40;;;;;;;20.39;89.00;100371.78;362050;81;21172;-43
2021/04/05 00:18:48;;;;;;;16.60;9.48;;;;;;;20.38;89.00;100370.13;358384;80;21157;-43
2021/04/05 00:19:22;;;;;;;17.12;9.33;;;;;;;20.37;88.96;100369.80;347235;84;21127;-44
2021/04/05 00:19:54;;;;;;;16.45;9.33;;;;;;;20.36;88.97;100368.14;359105;81;21135;-43
2021/04/05 00:20:30;;;;;;;15.72;9.13;;;;;;;20.36;88.94;100369.52;345199;84;21212;-43
2021/04/05 00:21:08;;;;;;;15.05;8.75;;;;;;;20.36;88.84;100366.77;361002;81;21576;-43
2021/04/05 00:21:41;;;;;;;14.63;9.05;;;;;;;20.36;88.81;100369.52;359162;81;21101;-44
2021/04/05 00:22:13;;;;;;;15.45;9.10;;;;;;;20.35;88.66;100366.45;362654;81;21157;-43
2021/04/05 00:22:45;;;;;;;17.07;9.20;;;;;;;20.34;88.57;100364.77;360347;81;21377;-43
2021/04/05 00:23:18;;;;;;;16.60;9.45;;;;;;;20.35;88.56;100369.20;362004;81;21129;-43
2021/04/05 00:23:52;;;;;;;17.30;9.78;;;;;;;20.34;88.54;100364.77;364068;81;21129;-43
2021/04/05 00:24:24;;;;;;;15.50;8.90;;;;;;;20.34;88.51;100366.67;361404;81;21105;-43
2021/04/05 00:24:56;;;;;;;16.00;9.23;;;;;;;20.34;88.46;100370.80;361108;80;21097;-42
2021/04/05 00:25:29;;;;;;;16.35;9.43;;;;;;;20.33;88.45;100365.84;359852;81;21141;-43
2021/04/05 00:26:03;;;;;;;15.50;9.05;;;;;;;20.33;88.39;100368.59;358775;81;21198;-43
2021/04/05 00:26:35;;;;;;;15.72;9.33;;;;;;;20.33;88.38;100365.84;348258;83;21138;-43
2021/04/05 00:27:08;;;;;;;17.07;9.18;;;;;;;20.33;88.24;100364.98;345335;85;21251;-43
2021/04/05 00:27:40;;;;;;;16.02;9.43;;;;;;;20.32;88.20;100366.06;345702;85;21181;-43
2021/04/05 00:28:12;;;;;;;15.93;9.48;;;;;;;20.32;88.20;100361.41;346596;85;21097;-43
2021/04/05 00:28:46;;;;;;;17.37;9.70;;;;;;;20.32;88.13;100363.32;338059;85;21143;-43
2021/04/05 00:29:18;;;;;;;16.62;9.98;;;;;;;20.32;87.99;100362.78;362566;81;21129;-43
2021/04/05 00:29:50;;;;;;;15.98;9.55;;;;;;;20.30;87.97;100356.14;362346;80;21141;-43
2021/04/05 00:30:33;;;;;;;17.67;10.03;;;;;;;20.30;87.88;100357.52;362331;81;21145;-44
2021/04/05 00:31:05;;;;;;;17.50;9.85;;;;;;;20.30;87.94;100354.77;361189;80;21086;-43
2021/04/05 00:31:40;;;;;;;17.65;10.03;;;;;;;20.30;87.92;100354.77;358510;81;21161;-43
2021/04/05 00:32:12;;;;;;;16.95;10.43;;;;;;;20.29;87.92;100348.13;356544;81;21141;-43
2021/04/05 00:32:48;;;;;;;18.02;10.43;;;;;;;20.29;87.90;100354.98;358127;81;21147;-43
2021/04/05 00:33:21;;;;;;;18.55;10.98;;;;;;;20.28;87.82;100351.41;362609;81;21243;-44
2021/04/05 00:33:53;;;;;;;18.42;10.80;;;;;;;20.28;87.80;100348.67;361261;81;21104;-43
2021/04/05 00:34:26;;;;;;;17.02;10.23;;;;;;;20.28;87.86;100354.16;362093;81;21133;-43
2021/04/05 00:34:58;;;;;;;17.92;10.88;;;;;;;20.28;87.87;100356.08;361111;81;21139;-43
2021/04/05 00:35:34;;;;;;;16.52;10.40;;;;;;;20.28;87.81;100351.95;362335;81;21145;-43
2021/04/05 00:36:07;;;;;;;15.20;9.78;;;;;;;20.26;87.77;100349.44;348547;84;21590;-43
2021/04/05 00:36:40;;;;;;;19.35;11.12;;;;;;;20.27;87.77;100351.64;362329;81;21450;-43
2021/04/05 00:37:15;;;;;;;18.65;11.25;;;;;;;20.26;87.71;100348.06;346574;83;21121;-43
2021/04/05 00:37:51;;;;;;;17.70;10.65;;;;;;;20.25;87.64;100351.86;355960;82;21109;-43
2021/04/05 00:38:24;;;;;;;20.32;11.10;;;;;;;20.25;87.56;100345.54;360430;81;21125;-43
2021/04/05 00:38:56;;;;;;;18.40;10.90;;;;;;;20.25;87.40;100345.54;358080;80;21144;-44
2021/04/05 00:39:28;;;;;;;19.55;11.53;;;;;;;20.25;87.24;100350.48;363956;80;21185;-43
2021/04/05 00:40:03;;;;;;;18.02;10.78;;;;;;;20.24;87.15;100347.45;363703;80;21483;-43
2021/04/05 00:40:49;;;;;;;19.05;11.40;;;;;;;20.23;87.11;100345.77;361606;80;21105;-43
2021/04/05 00:41:24;;;;;;;18.87;11.20;;;;;;;20.23;87.03;100344.93;366298;80;21593;-43
2021/04/05 00:41:56;;;;;;;19.80;12.13;;;;;;;20.22;86.97;100344.10;345710;84;21201;-43
2021/04/05 00:42:28;;;;;;;20.57;12.28;;;;;;;20.22;86.94;100345.98;340237;86;21347;-43
2021/04/05 00:43:01;;;;;;;20.70;13.22;;;;;;;20.21;86.94;100343.78;342704;84;21314;-44
2021/04/05 00:43:37;;;;;;;19.82;11.83;;;;;;;20.21;86.95;100347.07;348379;82;21596;-43
2021/04/05 00:44:09;;;;;;;19.92;11.55;;;;;;;20.20;86.90;100339.89;358749;80;21573;-43
2021/04/05 00:44:41;;;;;;;18.35;11.78;;;;;;;20.20;86.87;100345.37;365609;80;21105;-43
2021/04/05 00:45:15;;;;;;;20.50;12.13;;;;;;;20.20;86.82;100345.37;362648;80;21100;-43
2021/04/05 00:45:48;;;;;;;20.90;12.60;;;;;;;20.19;86.81;100340.43;352068;83;21133;-44
2021/04/05 00:46:22;;;;;;;19.85;11.53;;;;;;;20.19;86.83;100340.97;354231;83;21172;-44
2021/04/05 00:46:54;;;;;;;20.40;12.07;;;;;;;20.19;86.81;100343.72;355758;82;21650;-44
2021/04/05 00:47:30;;;;;;;19.37;11.93;;;;;;;20.18;86.78;100342.02;354879;82;21145;-44
2021/04/05 00:48:03;;;;;;;20.80;12.63;;;;;;;20.17;86.75;100338.45;355971;81;21136;-43
2021/04/05 00:48:36;;;;;;;20.05;12.25;;;;;;;20.18;86.65;100344.23;357748;82;21141;-43
2021/04/05 00:49:10;;;;;;;19.87;12.23;;;;;;;20.17;86.56;100338.45;357997;81;21580;-44
2021/04/05 00:49:42;;;;;;;20.12;12.13;;;;;;;20.18;86.54;100336.53;355772;81;21101;-43
2021/04/05 00:50:28;;;;;;;20.20;12.33;;;;;;;20.17;86.58;100338.45;359315;81;21142;-43
2021/04/05 00:51:07;;;;;;;22.48;12.90;;;;;;;20.16;86.50;100336.76;355419;82;21154;-43
2021/04/05 00:51:40;;;;;;;19.50;12.13;;;;;;;20.17;86.44;100338.96;355587;82;21260;-43
2021/04/05 00:52:12;;;;;;;20.50;12.58;;;;;;;20.16;86.42;100334.02;359609;81;21210;-44
2021/04/05 00:52:52;;;;;;;21.70;12.33;;;;;;;20.15;86.35;100332.86;348687;83;21199;-43
2021/04/05 00:53:29;;;;;;;21.45;12.63;;;;;;;20.15;86.25;100332.86;357776;82;21117;-43
2021/04/05 00:54:01;;;;;;;19.87;11.90;;;;;;;20.15;86.22;100342.47;356852;82;21134;-44
2021/04/05 00:54:33;;;;;;;20.95;13.03;;;;;;;20.14;86.16;100338.89;359386;80;21157;-43
2021/04/05 00:55:09;;;;;;;22.32;13.32;;;;;;;20.13;86.10;100335.00;364280;80;21156;-44
2021/04/05 00:55:43;;;;;;;20.45;12.68;;;;;;;20.13;86.14;100332.25;363458;80;21109;-44
2021/04/05 00:56:23;;;;;;;23.10;13.78;;;;;;;20.12;86.15;100334.17;365046;80;21097;-43
2021/04/05 00:56:55;;;;;;;21.87;14.28;;;;;;;20.12;86.16;100333.34;364662;80;21585;-43
2021/04/05 00:57:28;;;;;;;22.55;13.62;;;;;;;20.12;86.24;100334.17;362779;80;21121;-43
2021/04/05 00:58:04;;;;;;;23.57;15.00;;;;;;;20.10;86.17;100338.52;364263;80;21531;-44
2021/04/05 00:58:36;;;;;;;22.25;14.30;;;;;;;20.09;86.11;100339.56;365000;80;21134;-44
2021/04/05 00:59:10;;;;;;;22.93;14.03;;;;;;;20.10;86.03;100330.82;365025;80;21503;-44
2021/04/05 00:59:43;;;;;;;23.12;14.90;;;;;;;20.09;85.97;100337.36;362307;80;21152;-44
2021/04/05 01:00:20;;;;;;;24.75;15.43;;;;;;;20.07;85.94;100334.84;358302;81;21559;-44
2021/04/05 01:00:54;;;;;;;24.60;14.87;;;;;;;20.09;85.87;100338.73;359658;82;21156;-44
2021/04/05 01:01:28;;;;;;;23.38;14.95;;;;;;;20.08;85.87;100340.65;354883;82;21144;-44
2021/04/05 01:02:01;;;;;;;22.77;14.80;;;;;;;20.07;85.80;100337.59;362101;80;21157;-44
2021/04/05 01:02:35;;;;;;;22.67;14.70;;;;;;;20.07;85.74;100343.07;365947;80;21133;-43
2021/04/05 01:03:11;;;;;;;22.77;14.40;;;;;;;20.07;85.76;100342.24;363619;80;21105;-44
2021/04/05 01:03:44;;;;;;;22.13;14.23;;;;;;;20.06;85.72;100337.80;354605;82;21128;-44
2021/04/05 01:04:17;;;;;;;24.70;14.85;;;;;;;20.07;85.66;100339.50;353131;83;21151;-44
2021/04/05 01:04:50;;;;;;;22.85;14.73;;;;;;;20.06;85.61;100343.30;353769;82;21154;-44
2021/04/05 01:05:22;;;;;;;21.45;13.95;;;;;;;20.06;85.62;100344.16;353871;83;21185;-44
2021/04/05 01:05:59;;;;;;;21.68;14.05;;;;;;;20.05;85.62;100338.89;356033;82;21171;-44
2021/04/05 01:06:35;;;;;;;21.62;13.50;;;;;;;20.05;85.62;100347.95;355786;82;21168;-44
2021/04/05 01:07:07;;;;;;;21.50;13.55;;;;;;;20.04;85.54;100344.92;350771;83;21069;-44
2021/04/05 01:07:41;;;;;;;20.35;13.70;;;;;;;20.04;85.54;100343.55;346459;84;21148;-44
2021/04/05 01:08:16;;;;;;;21.33;13.95;;;;;;;20.03;85.49;100347.34;349422;83;21113;-44
2021/04/05 01:08:49;;;;;;;21.73;14.00;;;;;;;20.04;85.54;100344.92;350294;83;21529;-47
2021/04/05 01:09:21;;;;;;;22.22;14.35;;;;;;;20.04;85.54;100349.55;360651;80;21129;-45
2021/04/05 01:09:58;;;;;;;22.32;13.93;;;;;;;20.03;85.60;100342.40;351664;83;21196;-43
2021/04/05 01:10:30;;;;;;;22.05;14.00;;;;;;;20.03;85.81;100350.63;357534;82;21146;-44
2021/04/05 01:11:03;;;;;;;21.60;14.18;;;;;;;20.03;85.88;100352.84;350146;83;21106;-47
2021/04/05 01:11:35;;;;;;;23.18;13.55;;;;;;;20.02;85.97;100347.56;352403;83;21132;-44
2021/04/05 01:12:09;;;;;;;23.22;14.10;;;;;;;20.03;86.43;100343.77;352822;82;21125;-43
2021/04/05 01:12:42;;;;;;;22.07;14.25;;;;;;;20.03;86.47;100353.38;351730;83;21136;-42
2021/04/05 01:13:16;;;;;;;22.52;14.13;;;;;;;20.01;86.48;100350.85;352075;82;21155;-42
2021/04/05 01:13:48;;;;;;;21.90;13.80;;;;;;;20.01;86.22;100350.85;350948;83;21171;-44
2021/04/05 01:14:20;;;;;;;23.15;14.33;;;;;;;20.02;86.02;100349.77;352256;82;21170;-41
2021/04/05 01:14:53;;;;;;;23.75;13.90;;;;;;;20.01;85.97;100348.11;349167;83;21120;-42
2021/04/05 01:15:25;;;;;;;23.62;13.83;;;;;;;20.01;86.09;100354.11;354048;83;21058;-46
2021/04/05 01:15:58;;;;;;;40.60;13.83;;;;;;;20.02;85.85;100358.00;353893;82;21574;-44
2021/04/05 01:16:31;;;;;;;20.02;12.35;;;;;;;20.02;88.44;100353.89;349461;83;21182;-44
2021/04/05 01:17:04;;;;;;;21.33;13.25;;;;;;;20.03;89.39;100354.75;349881;83;21139;-45
2021/04/05 01:17:37;;;;;;;20.10;12.60;;;;;;;20.03;88.29;100347.89;348070;82;21146;-43
2021/04/05 01:18:13;;;;;;;20.82;12.55;;;;;;;20.02;87.39;100348.40;349362;83;21105;-44
2021/04/05 01:18:45;;;;;;;20.17;13.20;;;;;;;20.02;86.76;100353.89;355582;81;21115;-43
2021/04/05 01:19:18;;;;;;;20.88;12.20;;;;;;;20.03;86.28;100353.38;351424;83;21129;-43
2021/04/05 01:19:50;;;;;;;21.27;12.88;;;;;;;20.01;85.95;100354.97;354071;83;21141;-44
2021/04/05 01:20:23;;;;;;;20.10;12.03;;;;;;;20.02;85.68;100350.31;354184;83;21134;-43
2021/04/05 01:20:56;;;;;;;21.80;13.60;;;;;;;20.01;85.49;100356.34;356421;82;21146;-43
2021/04/05 01:21:28;;;;;;;21.48;13.08;;;;;;;20.00;85.29;100354.65;354641;83;21171;-43
2021/04/05 01:22:01;;;;;;;22.20;13.13;;;;;;;20.00;85.11;100349.70;356632;82;21136;-44
2021/04/05 01:22:33;;;;;;;20.72;12.45;;;;;;;20.00;84.99;100354.65;349887;83;21169;-42
2021/04/05 01:23:06;;;;;;;20.52;12.98;;;;;;;20.00;85.01;100351.91;347588;83;21201;-43
2021/04/05 01:23:38;;;;;;;21.48;13.05;;;;;;;19.99;85.08;100349.38;348382;83;21158;-43
2021/04/05 01:24:11;;;;;;;21.97;13.40;;;;;;;20.01;85.02;100356.85;348864;83;21191;-43
2021/04/05 01:24:44;;;;;;;23.77;13.60;;;;;;;20.01;84.93;100352.73;353665;82;21645;-43
2021/04/05 01:25:17;;;;;;;23.60;13.35;;;;;;;20.01;84.79;100354.11;348784;83;21170;-43
2021/04/05 01:25:50;;;;;;;22.62;13.55;;;;;;;20.00;84.64;100351.91;352280;82;21127;-44
2021/04/05 01:26:22;;;;;;;21.15;13.32;;;;;;;20.01;84.52;100352.23;351583;82;21149;-43
2021/04/05 01:26:54;;;;;;;22.50;13.25;;;;;;;20.01;84.46;100355.48;353208;82;21177;-43
2021/04/05 01:27:27;;;;;;;20.52;12.85;;;;;;;20.00;84.37;100349.16;359938;82;21125;-44
2021/04/05 01:27:59;;;;;;;21.52;13.18;;;;;;;20.00;84.34;100346.95;349475;83;21150;-43
2021/04/05 01:28:31;;;;;;;21.52;12.90;;;;;;;20.00;84.29;100346.95;351515;83;21199;-43
2021/04/05 01:29:06;;;;;;;20.97;13.40;;;;;;;19.99;84.23;100346.13;350401;83;21606;-43
2021/04/05 01:29:39;;;;;;;24.65;15.20;;;;;;;20.00;84.22;100347.79;358333;82;21125;-43
2021/04/05 01:30:28;;;;;;;23.50;15.10;;;;;;;19.99;84.18;100350.75;350351;83;21179;-43
2021/04/05 01:31:02;;;;;;;22.25;14.28;;;;;;;19.99;84.09;100349.38;354891;83;21519;-43
2021/04/05 01:31:34;;;;;;;24.23;14.78;;;;;;;19.99;83.99;100346.64;356292;82;21153;-43
2021/04/05 01:32:08;;;;;;;22.73;14.47;;;;;;;19.98;83.99;100349.09;352511;83;21164;-43
2021/04/05 01:32:41;;;;;;;22.02;13.50;;;;;;;19.97;84.04;100349.60;363851;80;21206;-43
2021/04/05 01:33:27;;;;;;;21.87;13.60;;;;;;;19.97;84.05;100350.15;364447;80;21198;-43
2021/04/05 01:33:59;;;;;;;22.58;14.00;;;;;;;19.96;84.04;100343.00;364801;80;21215;-43
2021/04/05 01:34:31;;;;;;;22.73;13.72;;;;;;;19.96;84.07;100351.23;366737;80;21121;-43
2021/04/05 01:35:07;;;;;;;25.55;14.38;;;;;;;19.94;84.07;100345.09;363007;80;21127;-43
2021/04/05 01:35:55;;;;;;;22.10;13.78;;;;;;;19.93;84.05;100340.16;363683;80;21107;-43
2021/04/05 01:36:27;;;;;;;22.98;13.58;;;;;;;19.94;84.02;100346.47;361442;80;21286;-43
2021/04/05 01:37:03;;;;;;;22.50;13.68;;;;;;;19.94;83.96;100345.09;362246;80;21121;-44
2021/04/05 01:37:36;;;;;;;21.05;13.35;;;;;;;19.92;83.93;100349.47;362287;80;21525;-43
2021/04/05 01:38:09;;;;;;;21.82;13.65;;;;;;;19.92;83.89;100345.36;361207;80;21113;-43
2021/04/05 01:38:44;;;;;;;23.67;14.10;;;;;;;19.91;83.92;100345.86;363334;80;21110;-43
2021/04/05 01:39:18;;;;;;;21.87;13.90;;;;;;;19.89;83.97;100346.63;356307;81;21140;-43
2021/04/05 01:39:51;;;;;;;23.55;13.50;;;;;;;19.89;83.98;100343.88;358243;82;21122;-44
2021/04/05 01:40:23;;;;;;;21.57;13.30;;;;;;;19.89;84.04;100345.25;354434;83;21210;-43
2021/04/05 01:40:59;;;;;;;20.45;13.10;;;;;;;19.89;84.04;100348.00;357696;80;21216;-43
2021/04/05 01:41:32;;;;;;;22.05;13.18;;;;;;;19.89;83.94;100343.88;358025;81;21520;-43
2021/04/05 01:42:05;;;;;;;21.15;13.48;;;;;;;19.88;83.87;100344.97;362770;80;21141;-43
2021/04/05 01:42:38;;;;;;;21.52;13.18;;;;;;;19.87;83.84;100344.64;362253;80;21113;-43
2021/04/05 01:43:11;;;;;;;24.32;14.18;;;;;;;19.87;83.83;100344.64;361750;80;21164;-43
2021/04/05 01:43:44;;;;;;;22.13;13.85;;;;;;;19.87;83.89;100346.02;362502;80;21117;-43
2021/04/05 01:44:17;;;;;;;23.22;13.53;;;;;;;19.86;83.94;100340.75;365093;80;21647;-43
2021/04/05 01:44:50;;;;;;;24.00;13.68;;;;;;;19.87;83.93;100347.93;358890;80;21153;-43
2021/04/05 01:45:22;;;;;;;22.22;13.10;;;;;;;19.86;83.94;100344.33;355905;82;21162;-43
2021/04/05 01:45:58;;;;;;;22.65;14.35;;;;;;;19.86;84.00;100347.61;359987;80;21199;-43
2021/04/05 01:46:30;;;;;;;23.52;14.00;;;;;;;19.86;84.00;100348.98;360639;80;21184;-43
2021/04/05 01:47:05;;;;;;;22.22;12.93;;;;;;;19.86;83.96;100346.23;359393;81;21109;-43
2021/04/05 01:47:37;;;;;;;21.90;13.53;;;;;;;19.85;83.98;100350.06;349654;83;21653;-43
2021/04/05 01:48:13;;;;;;;22.60;14.00;;;;;;;19.84;83.91;100346.45;349892;83;21593;-43
2021/04/05 01:48:46;;;;;;;21.37;12.93;;;;;;;19.84;83.96;100346.45;346416;85;21154;-43
2021/04/05 01:49:18;;;;;;;23.15;13.60;;;;;;;19.83;84.02;100343.42;353374;82;21084;-45
2021/04/05 01:49:50;;;;;;;23.50;13.80;;;;;;;19.84;84.01;100349.74;350951;81;21208;-44
2021/04/05 01:50:23;;;;;;;22.80;13.88;;;;;;;19.84;83.98;100349.74;352700;81;21204;-43
2021/04/05 01:51:06;;;;;;;21.95;13.65;;;;;;;19.83;83.91;100347.54;351610;82;21218;-44
2021/04/05 01:51:38;;;;;;;22.22;13.90;;;;;;;19.83;83.86;100352.17;351396;82;21250;-43
2021/04/05 01:52:13;;;;;;;23.77;14.13;;;;;;;19.83;83.81;100350.28;360899;80;21158;-43
2021/04/05 01:52:46;;;;;;;21.35;13.00;;;;;;;19.82;83.75;100349.96;357855;80;21236;-43
2021/04/05 01:53:20;;;;;;;22.60;13.62;;;;;;;19.82;83.73;100349.13;360107;82;21493;-43
2021/04/05 01:53:53;;;;;;;22.62;13.32;;;;;;;19.82;83.67;100347.77;358980;81;21132;-43
2021/04/05 01:54:26;;;;;;;21.77;13.10;;;;;;;19.81;83.66;100348.81;353298;82;21125;-42
2021/04/05 01:55:01;;;;;;;21.82;13.18;;;;;;;19.81;83.68;100349.64;351146;83;21123;-43
2021/04/05 01:55:34;;;;;;;20.97;12.50;;;;;;;19.81;83.75;100352.93;347187;84;21158;-43
2021/04/05 01:56:09;;;;;;;22.27;13.10;;;;;;;19.80;83.69;100350.72;350044;83;21198;-43
2021/04/05 01:56:43;;;;;;;23.73;12.37;;;;;;;19.80;83.70;100347.16;358061;81;21105;-43
2021/04/05 01:57:15;;;;;;;21.82;13.13;;;;;;;19.79;83.73;100348.20;356569;81;21131;-43
2021/04/05 01:57:50;;;;;;;22.42;13.30;;;;;;;19.78;83.73;100350.62;354185;82;21548;-43
2021/04/05 01:58:24;;;;;;;23.25;13.88;;;;;;;19.78;83.69;100354.23;361444;80;21592;-44
2021/04/05 01:58:56;;;;;;;22.65;13.10;;;;;;;19.78;83.65;100349.25;358752;80;21235;-46
2021/04/05 01:59:29;;;;;;;22.37;13.45;;;;;;;19.77;83.73;100351.70;360840;80;21178;-44
2021/04/05 02:00:04;;;;;;;22.85;13.55;;;;;;;19.78;83.69;100350.62;361829;80;21320;-43
2021/04/05 02:00:39;;;;;;;22.98;13.15;;;;;;;19.77;83.65;100348.42;353701;82;21114;-43
2021/04/05 02:01:15;;;;;;;21.20;13.53;;;;;;;19.77;83.63;100354.45;349908;83;21195;-44
2021/04/05 02:01:47;;;;;;;21.30;13.22;;;;;;;19.76;83.67;100353.62;356008;82;21109;-43
2021/04/05 02:02:19;;;;;;;21.80;13.58;;;;;;;;;;363460;80;21081;-43
2021/04/05 02:02:51;;;;;;;21.80;13.43;;;;;;;;;;358140;82;21255;-43
2021/04/05 02:03:25;;;;;;;24.52;13.25;;;;;;;;;;356307;82;21304;-43
2021/04/05 02:03:57;;;;;;;23.27;13.40;;;;;;;;;;362055;80;21198;-43
2021/04/05 02:04:35;;;;;;;21.97;13.00;;;;;;;19.75;83.64;100352.47;356598;82;21136;-42
2021/04/05 02:05:08;;;;;;;24.18;14.90;;;;;;;;;;351501;82;21308;-42
2021/04/05 02:05:54;;;;;;;23.35;14.65;;;;;;;19.75;83.68;100349.72;352136;82;21674;-43
2021/04/05 02:06:31;;;;;;;23.90;14.78;;;;;;;19.74;83.66;100343.38;358488;82;21127;-43
2021/04/05 02:07:05;;;;;;;22.93;13.78;;;;;;;19.73;83.67;100343.05;356707;81;21170;-43
2021/04/05 02:07:39;;;;;;;25.23;14.53;;;;;;;19.73;83.71;100349.41;360113;81;21146;-43
2021/04/05 02:08:11;;;;;;;26.20;14.18;;;;;;;19.73;83.72;100349.41;360404;80;21138;-43
2021/04/05 02:08:44;;;;;;;23.35;14.70;;;;;;;19.72;83.71;100348.22;356144;82;21121;-43
2021/04/05 02:09:17;;;;;;;24.00;14.83;;;;;;;19.72;83.73;100349.59;365124;80;21145;-43
2021/04/05 02:09:49;;;;;;;24.85;15.00;;;;;;;19.72;83.73;100346.84;364337;80;21158;-44
2021/04/05 02:10:24;;;;;;;24.87;14.58;;;;;;;19.72;83.70;100348.22;358686;81;21157;-43
2021/04/05 02:11:09;;;;;;;23.92;14.45;;;;;;;19.71;83.68;100346.56;357010;82;21133;-44
2021/04/05 02:11:42;;;;;;;24.65;14.40;;;;;;;19.71;83.65;100345.19;358710;82;21157;-44
2021/04/05 02:12:16;;;;;;;23.38;13.58;;;;;;;19.71;83.61;100352.05;362691;80;21834;-43
2021/04/05 02:12:49;;;;;;;22.98;14.00;;;;;;;19.70;83.54;100348.44;355015;81;21173;-44
2021/04/05 02:13:25;;;;;;;23.42;14.35;;;;;;;19.70;83.49;100347.06;349506;83;21587;-43
2021/04/05 02:13:59;;;;;;;26.93;15.20;;;;;;;19.69;83.49;100349.52;357662;81;21573;-44
2021/04/05 02:14:31;;;;;;;25.12;15.95;;;;;;;19.69;83.47;100353.63;355198;82;21126;-43
2021/04/05 02:15:08;;;;;;;25.85;15.53;;;;;;;19.69;83.42;100347.31;357344;82;21150;-43
2021/04/05 02:15:40;;;;;;;28.17;16.05;;;;;;;19.69;83.36;100351.44;358796;80;21169;-43
2021/04/05 02:16:15;;;;;;;25.97;16.00;;;;;;;19.69;83.36;100355.00;358283;80;21182;-43
2021/04/05 02:16:48;;;;;;;27.27;16.57;;;;;;;19.68;83.29;100353.31;359772;81;21157;-43
2021/04/05 02:17:20;;;;;;;25.68;15.72;;;;;;;19.68;83.29;100353.86;365874;80;21114;-43
2021/04/05 02:17:52;;;;;;;27.20;16.32;;;;;;;19.68;83.25;100350.57;365408;80;21085;-43
2021/04/05 02:18:26;;;;;;;27.95;16.23;;;;;;;19.68;83.17;100353.86;356419;80;21178;-43
2021/04/05 02:18:59;;;;;;;27.22;16.35;;;;;;;19.67;83.16;100356.27;359441;80;21306;-44
2021/04/05 02:19:32;;;;;;;27.13;16.97;;;;;;;19.67;83.10;100356.27;360561;80;21278;-44
2021/04/05 02:20:10;;;;;;;26.90;15.85;;;;;;;19.66;83.09;100354.08;359676;80;21136;-43
2021/04/05 02:20:45;;;;;;;25.80;15.50;;;;;;;19.66;83.04;100347.22;361635;80;21107;-43
2021/04/05 02:21:21;;;;;;;26.20;16.48;;;;;;;19.67;82.94;100356.27;362761;80;21128;-43
2021/04/05 02:21:53;;;;;;;25.65;15.63;;;;;;;19.66;82.92;100355.45;359505;80;21895;-44
2021/04/05 02:22:25;;;;;;;27.85;16.27;;;;;;;19.67;82.83;100357.64;360571;82;21542;-44
2021/04/05 02:22:58;;;;;;;26.00;16.20;;;;;;;19.66;82.85;100352.70;360118;82;21218;-43
2021/04/05 02:23:30;;;;;;;28.42;16.52;;;;;;;19.66;82.78;100355.98;357704;81;21190;-44
2021/04/05 02:24:05;;;;;;;25.90;16.23;;;;;;;19.65;82.76;100352.37;358127;80;21263;-43
2021/04/05 02:24:41;;;;;;;28.67;15.80;;;;;;;19.66;82.71;100355.98;357033;81;21113;-43
2021/04/05 02:25:20;;;;;;;26.10;15.65;;;;;;;19.64;82.73;100354.83;360506;81;21148;-43
2021/04/05 02:26:07;;;;;;;28.30;16.77;;;;;;;19.65;82.68;100352.92;359367;82;21115;-44
2021/04/05 02:26:40;;;;;;;23.87;14.45;;;;;;;19.65;82.59;100361.98;355138;82;21174;-43
2021/04/05 02:27:12;;;;;;;26.40;16.05;;;;;;;19.64;82.50;100358.95;358393;81;21080;-44
2021/04/05 02:27:49;;;;;;;27.07;15.90;;;;;;;19.63;82.54;100358.63;359210;82;21079;-43
2021/04/05 02:28:22;;;;;;;25.77;15.55;;;;;;;19.63;82.56;100357.80;361388;80;21081;-44
2021/04/05 02:28:59;;;;;;;24.55;14.93;;;;;;;19.61;82.55;100354.44;356500;80;21586;-44
2021/04/05 02:29:32;;;;;;;24.92;14.47;;;;;;;19.61;82.54;100356.64;355198;82;21152;-45
2021/04/05 02:30:07;;;;;;;25.37;16.02;;;;;;;19.60;82.48;100354.98;356443;80;21309;-43
2021/04/05 02:30:39;;;;;;;25.08;15.13;;;;;;;19.61;82.42;100353.07;359584;82;21229;-43
2021/04/05 02:31:20;;;;;;;24.30;14.85;;;;;;;19.59;82.43;100356.03;350103;83;21173;-43
2021/04/05 02:31:52;;;;;;;27.93;14.73;;;;;;;19.60;82.47;100359.09;348735;83;21323;-43
2021/04/05 02:32:25;;;;;;;30.30;14.65;;;;;;;19.61;82.42;100358.02;340721;86;21831;-44
2021/04/05 02:33:03;;;;;;;23.92;14.47;;;;;;;19.60;82.50;100358.23;353007;82;21157;-44
2021/04/05 02:33:41;;;;;;;23.00;14.33;;;;;;;19.61;82.45;100358.55;359644;80;21105;-43
2021/04/05 02:34:14;;;;;;;22.45;14.25;;;;;;;19.60;82.37;100354.98;359908;81;21140;-44
2021/04/05 02:34:46;;;;;;;23.35;13.70;;;;;;;19.59;82.27;100356.03;359323;81;21136;-43
2021/04/05 02:35:19;;;;;;;23.75;14.07;;;;;;;19.60;82.24;100357.72;352751;83;21109;-43
2021/04/05 02:35:51;;;;;;;24.90;14.45;;;;;;;19.60;82.24;100359.09;355525;82;21164;-43
2021/04/05 02:36:31;;;;;;;21.65;13.15;;;;;;;19.59;82.07;100361.52;356320;82;21565;-43
2021/04/05 02:37:05;;;;;;;22.52;13.80;;;;;;;19.60;81.92;100359.61;359858;82;21275;-44